Sunday, October 22, 2017, 5:09 PM EDT
Back to Local

KMMU, Morristown Municipal

Location: Morristown, NJ, United States Lat: 40.8
Local Time: 5:09 PM EDT (21:09 GMT) Lon: -74.417
Time Zone: US/Eastern Elev: 187 ft

Show me the last for .
Show Decoded

2017-10-22 16:45 METAR KMMU 222045Z 17005KT 10SM SCT200 24/08 A3034 =
2017-10-22 15:45 METAR KMMU 221945Z 18006KT 10SM SCT200 24/07 A3034 =
2017-10-22 14:45 METAR KMMU 221845Z 19005KT 10SM SCT200 24/07 A3034 =
2017-10-22 13:45 METAR KMMU 221745Z 21005KT 10SM FEW200 24/07 A3037 =
2017-10-22 12:45 METAR KMMU 221645Z 17006KT 10SM FEW200 24/07 A3039 =
2017-10-22 11:45 METAR KMMU 221545Z 21003KT 10SM SCT250 22/09 A3041 =
2017-10-22 10:45 METAR KMMU 221445Z 00000KT 10SM BKN250 17/09 A3042 =
2017-10-22 09:45 METAR KMMU 221345Z 00000KT 10SM BKN250 12/09 A3043 =
2017-10-22 08:45 METAR KMMU 221245Z 00000KT 10SM BKN250 08/07 A3044 =
2017-10-22 07:45 METAR KMMU 221145Z 00000KT 10SM MIFG BKN250 05/04 A3042 =
2017-10-22 06:45 METAR KMMU 221045Z 00000KT 10SM MIFG SCT250 04/04 A3040 =
2017-10-22 06:35 METAR KMMU 221035Z AUTO 00000KT 10SM CLR 03/03 A3039 RMK AO2 =
2017-10-22 06:15 METAR KMMU 221015Z AUTO 00000KT 3SM BR SCT002 03/03 A3039 RMK AO2 =
2017-10-22 05:55 METAR KMMU 220955Z AUTO 00000KT 3/4SM BR BKN002 03/03 A3039 RMK AO2 =
2017-10-22 05:35 METAR KMMU 220935Z AUTO 00000KT 10SM CLR 03/03 A3038 RMK AO2 =
2017-10-22 05:15 METAR KMMU 220915Z AUTO 00000KT 10SM SCT002 04/04 A3038 RMK AO2 =
2017-10-22 04:55 METAR KMMU 220855Z AUTO 00000KT 7SM SCT002 03/03 A3037 RMK AO2 =
2017-10-22 04:35 METAR KMMU 220835Z AUTO 00000KT 3/4SM BR VV005 03/03 A3037 RMK AO2 =
2017-10-22 04:15 METAR KMMU 220815Z AUTO 00000KT 10SM SCT002 03/03 A3036 RMK AO2 =
2017-10-22 03:55 METAR KMMU 220755Z AUTO 00000KT 1/2SM FG BKN002 04/04 A3037 RMK AO2 =
2017-10-22 03:35 METAR KMMU 220735Z AUTO 00000KT 10SM CLR 03/03 A3036 RMK AO2 =
2017-10-22 03:15 METAR KMMU 220715Z AUTO 00000KT 3/4SM BR VV005 04/04 A3037 RMK AO2 VIS 1/2V4 =
2017-10-22 02:55 METAR KMMU 220655Z AUTO 00000KT 1 1/2SM BR VV007 04/03 A3037 RMK AO2 VIS 1/2V5 =
2017-10-22 02:35 METAR KMMU 220635Z AUTO 00000KT 10SM CLR 04/04 A3037 RMK AO2 =
2017-10-22 02:15 METAR KMMU 220615Z AUTO 00000KT 10SM SCT002 05/04 A3036 RMK AO2 =
2017-10-22 01:55 METAR KMMU 220555Z AUTO 00000KT 1/2SM FG BKN002 04/04 A3037 RMK AO2 VIS 1/4V5 =
2017-10-22 01:35 METAR KMMU 220535Z AUTO 00000KT 5SM BR CLR 04/04 A3037 RMK AO2 =
2017-10-22 01:15 METAR KMMU 220515Z AUTO 00000KT 10SM CLR 05/04 A3037 RMK AO2 =
2017-10-22 00:55 METAR KMMU 220455Z AUTO 00000KT 1 3/4SM BR SCT002 05/05 A3037 RMK AO2 =
2017-10-22 00:35 METAR KMMU 220435Z AUTO 00000KT 1 1/4SM BR SCT002 05/05 A3037 RMK AO2 VIS 1/2V5
                 =
2017-10-22 00:15 METAR KMMU 220415Z AUTO 00000KT 2SM BR CLR 06/05 A3037 RMK AO2 VIS 1/2V5 =
2017-10-21 23:55 METAR KMMU 220355Z AUTO 00000KT 10SM CLR 06/06 A3037 RMK AO2 =
2017-10-21 23:35 METAR KMMU 220335Z AUTO 00000KT 10SM CLR 06/05 A3037 RMK AO2 =
2017-10-21 23:15 METAR KMMU 220315Z AUTO 00000KT 10SM CLR 07/06 A3037 RMK AO2 =
2017-10-21 22:50 METAR KMMU 220250Z AUTO 00000KT 10SM CLR 06/06 A3037 RMK AO2 =
2017-10-21 22:35 METAR KMMU 220235Z AUTO 00000KT 10SM CLR 07/06 A3037 RMK AO2 =
2017-10-21 21:45 METAR KMMU 220145Z 00000KT 10SM BKN120 09/08 A3037 =
2017-10-21 20:45 METAR KMMU 220045Z 00000KT 10SM BKN120 09/08 A3036 =
2017-10-21 19:45 METAR KMMU 212345Z 00000KT 10SM BKN120 12/09 A3034 =
2017-10-21 18:46 METAR KMMU 212246Z 00000KT 10SM BKN120 13/09 A3033 =
2017-10-21 17:46 METAR KMMU 212146Z COR 29003KT 15SM BKN120 19/10 A3032 =
2017-10-21 17:45 METAR KMMU 212145Z 29003KT 1SM BKN120 19/10 A3032 =

Support USWX by starting your Amazon purchase here.